createdAt,value
2022-08-02T00:00:12.067Z,20.46
2022-08-02T00:02:38.865Z,20.50
2022-08-02T00:05:05.941Z,20.53
2022-08-02T00:07:36.341Z,20.52
2022-08-02T00:10:07.127Z,20.51
2022-08-02T00:12:33.818Z,20.35
2022-08-02T00:15:00.437Z,20.28
2022-08-02T00:17:27.268Z,20.25
2022-08-02T00:19:53.946Z,20.21
2022-08-02T00:22:20.561Z,20.11
2022-08-02T00:24:47.170Z,20.18
2022-08-02T00:27:13.830Z,20.22
2022-08-02T00:29:42.449Z,20.16
2022-08-02T00:32:19.027Z,20.06
2022-08-02T00:34:45.629Z,20.05
2022-08-02T00:37:12.232Z,19.95
2022-08-02T00:39:39.013Z,19.95
2022-08-02T00:42:05.848Z,19.81
2022-08-02T00:44:32.503Z,19.73
2022-08-02T00:46:59.156Z,19.70
2022-08-02T00:49:25.890Z,19.43
2022-08-02T00:51:53.217Z,19.47
2022-08-02T00:54:20.820Z,19.57
2022-08-02T00:56:49.487Z,19.59
2022-08-02T00:59:18.693Z,19.67
2022-08-02T01:01:56.914Z,19.65
2022-08-02T01:04:30.087Z,19.72
2022-08-02T01:07:01.169Z,19.69
2022-08-02T01:09:27.949Z,19.77
2022-08-02T01:11:54.812Z,19.79
2022-08-02T01:14:22.335Z,19.81
2022-08-02T01:16:58.138Z,19.75
2022-08-02T01:19:43.335Z,19.53
2022-08-02T01:22:16.860Z,19.39
2022-08-02T01:25:08.146Z,19.27
2022-08-02T01:28:00.369Z,19.34
2022-08-02T01:30:29.974Z,19.40
2022-08-02T01:33:01.912Z,19.38
2022-08-02T01:35:47.234Z,19.40
2022-08-02T01:38:26.356Z,19.24
2022-08-02T01:40:55.965Z,19.08
2022-08-02T01:43:24.556Z,18.94
2022-08-02T01:45:53.330Z,19.01
2022-08-02T01:48:21.904Z,18.80
2022-08-02T01:50:50.073Z,18.72
2022-08-02T01:53:20.557Z,18.94
2022-08-02T01:55:58.439Z,18.96
2022-08-02T01:58:29.643Z,18.94
2022-08-02T02:00:58.064Z,18.85
2022-08-02T02:03:27.798Z,18.91
2022-08-02T02:05:57.257Z,19.11
2022-08-02T02:08:28.245Z,19.08
2022-08-02T02:10:56.893Z,19.09
2022-08-02T02:13:33.297Z,19.02
2022-08-02T02:16:04.503Z,18.86
2022-08-02T02:18:34.635Z,18.74
2022-08-02T02:21:01.318Z,18.72
2022-08-02T02:23:28.821Z,18.78
2022-08-02T02:26:04.414Z,19.23
2022-08-02T02:28:32.895Z,19.14
2022-08-02T02:31:07.504Z,18.91
2022-08-02T02:33:39.966Z,18.80
2022-08-02T02:36:08.881Z,18.64
2022-08-02T02:38:36.808Z,18.48
2022-08-02T02:41:05.575Z,18.42
2022-08-02T02:43:34.475Z,18.21
2022-08-02T02:46:04.849Z,18.28
2022-08-02T02:48:32.114Z,18.41
2022-08-02T02:51:00.742Z,18.46
2022-08-02T02:53:29.795Z,18.44
2022-08-02T02:56:20.489Z,18.38
2022-08-02T02:58:48.541Z,18.40
2022-08-02T03:01:16.147Z,18.40
2022-08-02T03:03:44.513Z,18.38
2022-08-02T03:06:15.034Z,18.26
2022-08-02T03:08:42.572Z,18.24
2022-08-02T03:11:10.173Z,18.34
2022-08-02T03:13:38.013Z,18.26
2022-08-02T03:16:05.408Z,18.10
2022-08-02T03:18:40.785Z,18.16
2022-08-02T03:21:12.918Z,18.06
2022-08-02T03:23:42.260Z,18.00
2022-08-02T03:26:10.048Z,17.93
2022-08-02T03:28:36.780Z,17.92
2022-08-02T03:31:03.843Z,17.71
2022-08-02T03:33:30.724Z,17.60
2022-08-02T03:36:04.316Z,17.64
2022-08-02T03:38:34.303Z,17.71
2022-08-02T03:41:02.658Z,17.64
2022-08-02T03:43:30.891Z,17.57
2022-08-02T03:45:58.913Z,17.45
2022-08-02T03:48:34.469Z,17.64
2022-08-02T03:51:02.835Z,17.82
2022-08-02T03:53:30.550Z,17.98
2022-08-02T03:55:58.033Z,18.08
2022-08-02T03:58:25.469Z,18.16
2022-08-02T04:00:54.027Z,17.89
2022-08-02T04:03:20.812Z,17.72
2022-08-02T04:06:03.774Z,17.74
2022-08-02T04:08:37.560Z,17.82
2022-08-02T04:11:05.153Z,17.89
2022-08-02T04:13:35.920Z,17.96
2022-08-02T04:16:07.181Z,18.01
2022-08-02T04:18:40.574Z,18.06
2022-08-02T04:21:12.602Z,18.16
2022-08-02T04:23:40.934Z,18.30
2022-08-02T04:26:08.748Z,18.20
2022-08-02T04:28:37.996Z,18.02
2022-08-02T04:31:06.488Z,17.90
2022-08-02T04:33:34.965Z,17.86
2022-08-02T04:36:02.413Z,17.74
2022-08-02T04:38:29.155Z,17.83
2022-08-02T04:40:56.149Z,17.70
2022-08-02T04:43:23.866Z,17.72
2022-08-02T04:45:53.634Z,17.91
2022-08-02T04:48:21.872Z,17.96
2022-08-02T04:50:48.565Z,17.76
2022-08-02T04:53:15.257Z,17.95
2022-08-02T04:55:42.031Z,17.73
2022-08-02T04:58:36.992Z,17.67
2022-08-02T05:00:55.495Z,17.80
2022-08-02T05:03:22.150Z,17.85
2022-08-02T05:05:48.757Z,17.91
2022-08-02T05:08:15.379Z,17.81
2022-08-02T05:10:42.081Z,17.98
2022-08-02T05:13:08.696Z,17.89
2022-08-02T05:15:35.375Z,17.89
2022-08-02T05:18:02.058Z,17.82
2022-08-02T05:20:28.729Z,18.18
2022-08-02T05:22:55.381Z,18.09
2022-08-02T05:25:22.022Z,18.00
2022-08-02T05:27:48.887Z,18.11
2022-08-02T05:30:15.736Z,18.27
2022-08-02T05:32:49.491Z,18.19
2022-08-02T05:35:21.094Z,18.13
2022-08-02T05:37:48.962Z,18.20
2022-08-02T05:40:16.023Z,18.15
2022-08-02T05:42:43.677Z,18.55
2022-08-02T05:45:10.760Z,18.54
2022-08-02T05:47:38.402Z,18.63
2022-08-02T05:50:07.718Z,18.83
2022-08-02T05:53:01.587Z,18.62
2022-08-02T05:55:34.462Z,18.70
2022-08-02T05:58:16.140Z,18.79
2022-08-02T06:00:45.469Z,18.80
2022-08-02T06:03:25.181Z,18.85
2022-08-02T06:06:00.476Z,18.90
2022-08-02T06:08:35.464Z,18.90
2022-08-02T06:11:02.634Z,19.07
2022-08-02T06:13:29.528Z,19.16
2022-08-02T06:15:57.778Z,19.42
2022-08-02T06:18:28.882Z,19.32
2022-08-02T06:22:33.326Z,19.40
2022-08-02T06:23:57.692Z,19.46
2022-08-02T06:26:27.621Z,19.52
2022-08-02T06:28:57.381Z,19.57
2022-08-02T06:31:24.511Z,19.91
2022-08-02T06:33:51.129Z,19.82
2022-08-02T06:36:43.499Z,19.85
2022-08-02T06:39:20.936Z,19.96
2022-08-02T06:41:50.038Z,20.04
2022-08-02T06:44:45.666Z,19.94
2022-08-02T06:47:11.648Z,20.05
2022-08-02T06:49:52.979Z,20.20
2022-08-02T06:52:30.649Z,20.67
2022-08-02T06:55:01.726Z,20.64
2022-08-02T06:57:29.875Z,20.69
2022-08-02T06:59:57.548Z,21.15
2022-08-02T07:02:24.444Z,21.24
2022-08-02T07:04:51.112Z,21.53
2022-08-02T07:07:17.931Z,21.47
2022-08-02T07:09:56.696Z,21.67
2022-08-02T07:12:29.128Z,22.11
2022-08-02T07:14:55.880Z,22.17
2022-08-02T07:17:22.497Z,22.25
2022-08-02T07:19:49.210Z,22.85
2022-08-02T07:22:16.192Z,22.75
2022-08-02T07:24:43.122Z,22.80
2022-08-02T07:27:11.686Z,23.04
2022-08-02T07:29:46.039Z,23.34
2022-08-02T07:32:15.509Z,23.35
2022-08-02T07:34:42.971Z,23.40
2022-08-02T07:37:20.577Z,23.40
2022-08-02T07:40:04.683Z,23.35
2022-08-02T07:42:33.222Z,23.73
2022-08-02T07:44:59.914Z,23.82
2022-08-02T07:47:26.625Z,23.76
2022-08-02T07:49:53.330Z,23.68
2022-08-02T07:52:20.122Z,23.81
2022-08-02T07:54:46.824Z,24.01
2022-08-02T07:57:13.775Z,24.09
2022-08-02T07:59:40.410Z,24.34
2022-08-02T08:02:07.177Z,24.81
2022-08-02T08:04:33.877Z,24.70
2022-08-02T08:07:00.497Z,24.78
2022-08-02T08:09:27.273Z,24.64
2022-08-02T08:11:53.953Z,24.94
2022-08-02T08:14:20.592Z,24.95
2022-08-02T08:16:47.255Z,24.96
2022-08-02T08:19:13.872Z,25.04
2022-08-02T08:21:40.493Z,25.13
2022-08-02T08:24:07.415Z,25.33
2022-08-02T08:26:34.041Z,25.29
2022-08-02T08:29:00.717Z,25.38
2022-08-02T08:31:27.472Z,25.66
2022-08-02T08:33:54.139Z,25.55
2022-08-02T08:36:20.766Z,25.65
2022-08-02T08:38:47.532Z,25.64
2022-08-02T08:41:16.541Z,25.74
2022-08-02T08:43:43.797Z,25.99
2022-08-02T08:46:15.245Z,25.34
2022-08-02T08:48:47.028Z,25.21
2022-08-02T08:51:18.003Z,25.71
2022-08-02T08:53:48.929Z,25.95
2022-08-02T08:56:16.837Z,25.18
2022-08-02T08:58:45.090Z,25.63
2022-08-02T09:01:13.586Z,25.51
2022-08-02T09:03:40.370Z,25.75
2022-08-02T09:06:07.265Z,25.80
2022-08-02T09:08:33.899Z,25.46
2022-08-02T09:11:00.644Z,25.32
2022-08-02T09:13:38.473Z,25.85
2022-08-02T09:16:14.209Z,25.92
2022-08-02T09:18:46.671Z,26.09
2022-08-02T09:21:16.556Z,26.22
2022-08-02T09:23:48.462Z,26.34
2022-08-02T09:26:20.608Z,26.48
2022-08-02T09:28:52.576Z,26.22
2022-08-02T09:31:21.914Z,26.73
2022-08-02T09:33:57.197Z,26.71
2022-08-02T09:36:25.084Z,26.49
2022-08-02T09:39:00.958Z,26.84
2022-08-02T09:41:29.570Z,26.18
2022-08-02T09:44:05.413Z,26.86
2022-08-02T09:46:36.264Z,27.12
2022-08-02T09:49:11.491Z,26.62
2022-08-02T09:51:50.434Z,27.48
2022-08-02T09:54:18.578Z,27.27
2022-08-02T09:56:50.567Z,27.16
2022-08-02T09:59:19.350Z,27.36
2022-08-02T10:01:50.577Z,27.38
2022-08-02T10:04:28.203Z,27.17
2022-08-02T10:06:54.924Z,27.31
2022-08-02T10:09:22.431Z,27.28
2022-08-02T10:11:49.141Z,27.43
2022-08-02T10:14:15.824Z,27.40
2022-08-02T10:16:43.977Z,27.57
2022-08-02T10:19:10.835Z,27.63
2022-08-02T10:21:46.888Z,27.94
2022-08-02T10:24:20.510Z,28.31
2022-08-02T10:26:48.526Z,28.28
2022-08-02T10:29:17.786Z,27.87
2022-08-02T10:31:54.440Z,28.29
2022-08-02T10:34:31.789Z,28.58
2022-08-02T10:37:04.983Z,27.71
2022-08-02T10:39:46.660Z,27.88
2022-08-02T10:42:44.355Z,28.13
2022-08-02T10:45:13.490Z,28.15
2022-08-02T10:47:40.096Z,27.86
2022-08-02T10:50:07.303Z,28.39
2022-08-02T10:52:34.058Z,28.51
2022-08-02T10:55:13.265Z,28.49
2022-08-02T10:57:41.383Z,28.25
2022-08-02T11:00:24.288Z,28.30
2022-08-02T11:02:53.259Z,28.74
2022-08-02T11:05:43.076Z,28.51
2022-08-02T11:08:21.266Z,28.12
2022-08-02T11:10:48.228Z,28.27
2022-08-02T11:13:17.219Z,28.47
2022-08-02T11:15:55.279Z,28.48
2022-08-02T11:18:24.449Z,28.51
2022-08-02T11:21:31.133Z,28.82
2022-08-02T11:24:24.223Z,28.41
2022-08-02T11:26:51.872Z,29.15
2022-08-02T11:29:18.740Z,29.12
2022-08-02T11:31:47.510Z,29.05
2022-08-02T11:34:37.051Z,29.04
2022-08-02T11:37:03.710Z,29.00
2022-08-02T11:39:30.349Z,28.80
2022-08-02T11:41:59.365Z,29.26
2022-08-02T11:44:27.751Z,29.10
2022-08-02T11:47:03.783Z,29.17
2022-08-02T11:49:30.474Z,29.76
2022-08-02T11:52:01.877Z,29.90
2022-08-02T11:54:35.254Z,29.73
2022-08-02T11:57:22.193Z,29.59
2022-08-02T11:59:51.603Z,29.31
2022-08-02T12:02:20.281Z,29.77
2022-08-02T12:05:00.451Z,30.00
2022-08-02T12:07:35.368Z,30.07
2022-08-02T12:10:08.146Z,29.96
2022-08-02T12:12:55.203Z,30.08
2022-08-02T12:15:43.571Z,30.11
2022-08-02T12:18:12.250Z,30.74
2022-08-02T12:20:38.871Z,30.28
2022-08-02T12:23:05.617Z,30.02
2022-08-02T12:25:34.161Z,29.94
2022-08-02T12:28:17.864Z,29.94
2022-08-02T12:30:57.631Z,29.96
2022-08-02T12:33:29.840Z,30.43
2022-08-02T12:35:56.604Z,29.97
2022-08-02T12:38:23.287Z,29.87
2022-08-02T12:40:50.201Z,30.08
2022-08-02T12:43:23.960Z,29.89
2022-08-02T12:45:53.131Z,29.93
2022-08-02T12:48:42.703Z,30.19
2022-08-02T12:51:56.903Z,30.44
2022-08-02T12:54:31.409Z,30.30
2022-08-02T12:57:14.014Z,30.15
2022-08-02T12:59:42.557Z,30.51
2022-08-02T13:02:12.581Z,30.07
2022-08-02T13:04:41.478Z,30.28
2022-08-02T13:07:10.190Z,30.06
2022-08-02T13:09:41.808Z,30.19
2022-08-02T13:12:09.122Z,30.02
2022-08-02T13:14:39.917Z,30.01
2022-08-02T13:17:10.117Z,30.11
2022-08-02T13:19:37.469Z,30.02
2022-08-02T13:22:04.350Z,30.28
2022-08-02T13:24:38.203Z,30.06
2022-08-02T13:27:08.607Z,30.13
2022-08-02T13:29:37.275Z,30.01
2022-08-02T13:32:04.134Z,30.75
2022-08-02T13:34:30.768Z,30.17
2022-08-02T13:36:57.398Z,30.14
2022-08-02T13:39:24.033Z,30.38
2022-08-02T13:41:50.705Z,30.53
2022-08-02T13:44:17.361Z,30.61
2022-08-02T13:46:45.603Z,29.97
2022-08-02T13:49:19.350Z,30.49
2022-08-02T13:51:47.481Z,30.43
2022-08-02T13:54:14.844Z,30.39
2022-08-02T13:56:41.517Z,30.29
2022-08-02T13:59:55.285Z,30.01
2022-08-02T14:01:55.652Z,30.23
2022-08-02T14:04:22.906Z,30.06
2022-08-02T14:06:49.678Z,29.97
2022-08-02T14:09:17.247Z,29.92
2022-08-02T14:11:45.257Z,30.00
2022-08-02T14:14:15.925Z,30.51
2022-08-02T14:16:44.595Z,30.34
2022-08-02T14:19:16.268Z,30.13
2022-08-02T14:21:48.777Z,30.02
2022-08-02T14:24:20.456Z,29.94
2022-08-02T14:26:48.453Z,30.38
2022-08-02T14:29:18.013Z,30.23
2022-08-02T14:31:45.215Z,30.14
2022-08-02T14:34:15.021Z,30.06
2022-08-02T14:36:42.071Z,30.33
2022-08-02T14:39:09.017Z,30.51
2022-08-02T14:41:58.033Z,29.44
2022-08-02T14:44:22.463Z,29.79
2022-08-02T14:46:51.606Z,30.06
2022-08-02T14:49:25.121Z,29.77
2022-08-02T14:51:53.557Z,29.93
2022-08-02T14:54:20.250Z,30.30
2022-08-02T14:56:56.072Z,30.19
2022-08-02T14:59:23.003Z,30.64
2022-08-02T15:01:49.671Z,30.47
2022-08-02T15:04:16.398Z,30.37
2022-08-02T15:06:43.055Z,30.25
2022-08-02T15:09:09.841Z,30.28
2022-08-02T15:11:47.129Z,30.36
2022-08-02T15:14:25.583Z,30.72
2022-08-02T15:16:58.563Z,30.64
2022-08-02T15:19:55.936Z,30.82
2022-08-02T15:22:15.986Z,31.01
2022-08-02T15:24:44.635Z,30.37
2022-08-02T15:27:11.337Z,30.84
2022-08-02T15:29:38.157Z,30.81
2022-08-02T15:32:05.040Z,30.37
2022-08-02T15:34:31.668Z,30.25
2022-08-02T15:36:58.344Z,30.51
2022-08-02T15:39:25.179Z,30.47
2022-08-02T15:41:51.809Z,30.88
2022-08-02T15:44:18.629Z,30.93
2022-08-02T15:46:45.277Z,30.60
2022-08-02T15:49:12.079Z,30.24
2022-08-02T15:51:38.811Z,30.23
2022-08-02T15:54:05.487Z,30.08
2022-08-02T15:56:32.195Z,29.90
2022-08-02T15:58:59.035Z,29.71
2022-08-02T16:01:36.986Z,30.08
2022-08-02T16:04:06.849Z,30.66
2022-08-02T16:06:34.878Z,30.79
2022-08-02T16:09:02.072Z,31.41
2022-08-02T16:11:28.709Z,30.99
2022-08-02T16:13:55.656Z,30.39
2022-08-02T16:16:27.630Z,30.44
2022-08-02T16:18:54.772Z,30.43
2022-08-02T16:21:22.423Z,30.45
2022-08-02T16:23:58.576Z,30.83
2022-08-02T16:26:30.716Z,30.55
2022-08-02T16:28:58.777Z,30.12
2022-08-02T16:31:25.495Z,30.19
2022-08-02T16:33:56.043Z,29.92
2022-08-02T16:36:25.078Z,30.19
2022-08-02T16:38:53.311Z,30.05
2022-08-02T16:41:23.732Z,31.07
2022-08-02T16:44:10.354Z,30.14
2022-08-02T16:46:37.381Z,30.82
2022-08-02T16:49:04.279Z,30.86
2022-08-02T16:51:31.161Z,31.04
2022-08-02T16:54:00.015Z,30.30
2022-08-02T16:56:28.796Z,30.31
2022-08-02T16:59:00.015Z,29.86
2022-08-02T17:02:01.794Z,29.80
2022-08-02T17:04:15.673Z,29.45
2022-08-02T17:06:47.627Z,29.68
2022-08-02T17:10:02.119Z,29.79
2022-08-02T17:12:13.495Z,29.41
2022-08-02T17:14:54.989Z,29.13
2022-08-02T17:17:34.045Z,28.79
2022-08-02T17:20:02.143Z,28.98
2022-08-02T17:22:29.043Z,28.87
2022-08-02T17:24:56.072Z,28.61
2022-08-02T17:27:22.913Z,28.44
2022-08-02T17:29:49.723Z,28.16
2022-08-02T17:32:16.731Z,28.24
2022-08-02T17:34:49.110Z,27.95
2022-08-02T17:37:28.410Z,27.76
2022-08-02T17:39:55.768Z,27.78
2022-08-02T17:42:24.119Z,27.81
2022-08-02T17:47:43.278Z,27.84
2022-08-02T17:50:29.953Z,27.98
2022-08-02T17:52:56.825Z,27.45
2022-08-02T17:55:23.686Z,27.59
2022-08-02T17:57:57.488Z,27.34
2022-08-02T18:00:33.647Z,27.40
2022-08-02T18:03:01.735Z,27.49
2022-08-02T18:05:39.374Z,27.41
2022-08-02T18:08:18.335Z,27.45
2022-08-02T18:10:47.895Z,27.57
2022-08-02T18:13:14.832Z,27.67
2022-08-02T18:15:41.603Z,27.67
2022-08-02T18:18:13.180Z,27.73
2022-08-02T18:20:41.131Z,27.73
2022-08-02T18:23:13.636Z,27.60
2022-08-02T18:25:45.956Z,27.46
2022-08-02T18:28:28.084Z,27.24
2022-08-02T18:30:54.716Z,26.81
2022-08-02T18:33:58.192Z,26.64
2022-08-02T18:36:10.215Z,26.79
2022-08-02T18:38:51.580Z,26.43
2022-08-02T18:41:19.138Z,26.02
2022-08-02T18:43:48.784Z,25.74
2022-08-02T18:46:17.218Z,25.16
2022-08-02T18:48:47.829Z,25.29
2022-08-02T18:51:18.785Z,25.20
2022-08-02T18:54:04.199Z,25.19
2022-08-02T18:56:32.709Z,25.35
2022-08-02T18:58:59.611Z,25.22
2022-08-02T19:01:33.673Z,25.18
2022-08-02T19:04:03.872Z,25.08
2022-08-02T19:06:30.654Z,25.11
2022-08-02T19:09:05.497Z,25.07
2022-08-02T19:11:37.174Z,24.96
2022-08-02T19:14:03.988Z,25.43
2022-08-02T19:16:36.793Z,25.02
2022-08-02T19:19:07.909Z,24.96
2022-08-02T19:22:16.549Z,25.01
2022-08-02T19:24:21.865Z,24.74
2022-08-02T19:26:51.967Z,24.94
2022-08-02T19:29:42.074Z,24.98
2022-08-02T19:32:42.790Z,24.84
2022-08-02T19:34:56.303Z,24.99
2022-08-02T19:37:23.001Z,25.31
2022-08-02T19:39:50.454Z,25.00
2022-08-02T19:42:18.718Z,24.94
2022-08-02T19:44:46.541Z,24.90
2022-08-02T19:47:19.161Z,24.89
2022-08-02T19:49:48.925Z,24.56
2022-08-02T19:52:21.883Z,24.56
2022-08-02T19:54:55.562Z,24.07
2022-08-02T19:57:24.954Z,23.85
2022-08-02T19:59:53.854Z,24.00
2022-08-02T20:02:21.358Z,24.15
2022-08-02T20:04:50.470Z,24.36
2022-08-02T20:07:54.479Z,24.11
2022-08-02T20:10:11.285Z,24.43
2022-08-02T20:12:41.710Z,24.45
2022-08-02T20:15:15.413Z,24.48
2022-08-02T20:17:46.446Z,24.37
2022-08-02T20:20:15.281Z,24.12
2022-08-02T20:22:41.918Z,24.22
2022-08-02T20:25:10.321Z,24.23
2022-08-02T20:27:51.075Z,23.96
2022-08-02T20:30:18.435Z,23.80
2022-08-02T20:32:52.588Z,23.86
2022-08-02T20:35:19.922Z,23.92
2022-08-02T20:40:34.743Z,24.01
2022-08-02T20:43:01.801Z,24.11
2022-08-02T20:45:29.198Z,23.98
2022-08-02T20:48:00.380Z,24.03
2022-08-02T20:50:30.288Z,24.04
2022-08-02T20:52:59.272Z,23.98
2022-08-02T20:55:26.196Z,23.90
2022-08-02T20:58:00.467Z,23.78
2022-08-02T21:00:27.998Z,23.67
2022-08-02T21:02:54.646Z,23.44
2022-08-02T21:05:26.921Z,23.41
2022-08-02T21:08:09.555Z,23.28
2022-08-02T21:10:41.693Z,23.26
2022-08-02T21:13:18.990Z,23.19
2022-08-02T21:15:50.007Z,23.18
2022-08-02T21:18:21.465Z,23.33
2022-08-02T21:20:53.174Z,23.34
2022-08-02T21:23:20.234Z,23.34
2022-08-02T21:25:57.117Z,23.24
2022-08-02T21:28:24.899Z,23.21
2022-08-02T21:31:12.258Z,23.13
2022-08-02T21:33:56.723Z,23.08
2022-08-02T21:36:31.812Z,23.13
2022-08-02T21:39:05.456Z,23.07
2022-08-02T21:44:22.054Z,22.96
2022-08-02T21:46:53.983Z,22.84
2022-08-02T21:49:40.511Z,22.96
2022-08-02T21:52:12.438Z,22.88
2022-08-02T21:54:39.629Z,22.81
2022-08-02T21:57:06.931Z,22.66
2022-08-02T21:59:33.778Z,22.68
2022-08-02T22:02:01.381Z,22.56
2022-08-02T22:04:28.101Z,22.69
2022-08-02T22:06:55.650Z,22.76
2022-08-02T22:09:42.306Z,22.68
2022-08-02T22:12:16.965Z,22.57
2022-08-02T22:14:49.476Z,22.56
2022-08-02T22:17:50.421Z,22.48
2022-08-02T22:20:09.238Z,22.46
2022-08-02T22:22:39.041Z,22.44
2022-08-02T22:25:06.199Z,22.44
2022-08-02T22:28:34.920Z,22.42
2022-08-02T22:30:35.209Z,22.38
2022-08-02T22:33:02.056Z,22.36
2022-08-02T22:35:41.832Z,22.14
2022-08-02T22:38:16.904Z,22.24
2022-08-02T22:40:45.831Z,22.22
2022-08-02T22:43:22.617Z,22.16
2022-08-02T22:45:50.118Z,22.24
2022-08-02T22:58:49.366Z,27.85
2022-08-02T22:59:03.343Z,23.04
2022-08-02T22:59:07.384Z,23.87
